createdAt,value
2022-10-16T00:00:46.229Z,33.88
2022-10-16T00:03:16.922Z,38.75
2022-10-16T00:05:47.727Z,26.80
2022-10-16T00:08:18.335Z,30.17
2022-10-16T00:10:48.828Z,22.55
2022-10-16T00:13:20.923Z,23.40
2022-10-16T00:15:51.632Z,21.95
2022-10-16T00:18:25.397Z,19.73
2022-10-16T00:23:26.921Z,22.67
2022-10-16T00:26:00.090Z,21.68
2022-10-16T00:28:31.438Z,25.23
2022-10-16T00:31:03.780Z,24.67
2022-10-16T00:33:34.496Z,18.40
2022-10-16T00:36:06.815Z,22.13
2022-10-16T00:38:37.863Z,21.17
2022-10-16T00:41:09.838Z,22.85
2022-10-16T00:43:41.404Z,18.87
2022-10-16T00:46:14.518Z,17.17
2022-10-16T00:48:47.102Z,17.05
2022-10-16T00:51:18.447Z,20.37
2022-10-16T00:53:49.572Z,17.42
2022-10-16T00:56:21.299Z,18.25
2022-10-16T00:58:52.232Z,18.82
2022-10-16T01:01:22.894Z,18.02
2022-10-16T01:03:53.416Z,25.77
2022-10-16T01:06:26.589Z,16.23
2022-10-16T01:08:59.623Z,18.02
2022-10-16T01:11:32.668Z,16.52
2022-10-16T01:14:05.687Z,17.12
2022-10-16T01:16:38.786Z,16.25
2022-10-16T01:19:12.284Z,15.25
2022-10-16T01:21:45.842Z,17.15
2022-10-16T01:24:18.970Z,15.78
2022-10-16T01:26:52.081Z,16.20
2022-10-16T01:29:23.815Z,14.60
2022-10-16T01:31:58.084Z,17.80
2022-10-16T01:34:31.082Z,14.75
2022-10-16T01:37:04.173Z,15.65
2022-10-16T01:39:37.272Z,16.93
2022-10-16T01:42:10.436Z,15.35
2022-10-16T01:44:44.389Z,17.45
2022-10-16T01:47:23.609Z,20.55
2022-10-16T01:50:00.950Z,17.32
2022-10-16T01:52:32.795Z,15.43
2022-10-16T01:55:05.972Z,14.78
2022-10-16T01:57:41.262Z,14.07
2022-10-16T02:00:14.441Z,15.85
2022-10-16T02:02:48.134Z,17.27
2022-10-16T02:05:21.180Z,17.07
2022-10-16T02:07:52.725Z,14.90
2022-10-16T02:10:23.929Z,17.73
2022-10-16T02:12:57.056Z,18.70
2022-10-16T02:15:27.782Z,14.58
2022-10-16T02:17:58.685Z,15.10
2022-10-16T02:20:31.723Z,15.20
2022-10-16T02:23:06.566Z,14.83
2022-10-16T02:25:39.591Z,15.78
2022-10-16T02:28:13.990Z,16.37
2022-10-16T02:30:49.155Z,16.52
2022-10-16T02:33:21.831Z,18.07
2022-10-16T02:35:54.010Z,18.07
2022-10-16T02:38:26.295Z,14.90
2022-10-16T02:41:00.730Z,13.80
2022-10-16T02:43:31.710Z,15.95
2022-10-16T02:46:02.750Z,15.43
2022-10-16T02:48:33.310Z,15.30
2022-10-16T02:51:04.040Z,15.35
2022-10-16T02:53:34.742Z,16.25
2022-10-16T02:56:07.219Z,17.02
2022-10-16T02:58:37.950Z,15.98
2022-10-16T03:01:08.791Z,15.85
2022-10-16T03:03:39.479Z,16.75
2022-10-16T03:06:10.611Z,15.43
2022-10-16T03:08:41.579Z,15.35
2022-10-16T03:11:12.278Z,16.20
2022-10-16T03:13:42.888Z,14.10
2022-10-16T03:16:13.965Z,14.53
2022-10-16T03:18:44.770Z,15.72
2022-10-16T03:21:15.460Z,17.82
2022-10-16T03:23:45.978Z,18.40
2022-10-16T03:26:17.310Z,16.73
2022-10-16T03:28:49.808Z,13.78
2022-10-16T03:31:20.521Z,14.73
2022-10-16T03:33:52.075Z,14.00
2022-10-16T03:36:22.926Z,15.72
2022-10-16T03:38:53.851Z,16.67
2022-10-16T03:41:24.738Z,14.33
2022-10-16T03:43:55.320Z,20.75
2022-10-16T03:46:27.075Z,15.98
2022-10-16T03:48:57.715Z,19.30
2022-10-16T03:51:31.075Z,15.28
2022-10-16T03:54:02.250Z,18.37
2022-10-16T03:56:32.831Z,19.75
2022-10-16T03:59:05.053Z,18.25
2022-10-16T04:01:35.933Z,18.40
2022-10-16T04:04:06.844Z,23.83
2022-10-16T04:06:39.504Z,17.12
2022-10-16T04:09:10.196Z,16.90
2022-10-16T04:11:41.633Z,18.67
2022-10-16T04:14:13.959Z,16.00
2022-10-16T04:16:46.351Z,18.02
2022-10-16T04:19:18.293Z,18.17
2022-10-16T04:21:52.201Z,17.85
2022-10-16T04:24:23.545Z,21.68
2022-10-16T04:26:54.591Z,18.20
2022-10-16T04:29:25.926Z,16.70
2022-10-16T04:31:56.599Z,16.25
2022-10-16T04:34:27.411Z,17.40
2022-10-16T04:36:59.438Z,19.62
2022-10-16T04:39:30.021Z,16.75
2022-10-16T04:42:00.645Z,16.87
2022-10-16T04:44:31.194Z,17.92
2022-10-16T04:47:01.693Z,18.15
2022-10-16T04:49:32.501Z,17.48
2022-10-16T04:52:03.179Z,19.77
2022-10-16T04:54:34.460Z,21.10
2022-10-16T04:57:06.897Z,17.42
2022-10-16T04:59:38.044Z,18.75
2022-10-16T05:02:08.969Z,19.27
2022-10-16T05:04:39.803Z,16.75
2022-10-16T05:07:10.950Z,19.37
2022-10-16T05:09:42.204Z,16.05
2022-10-16T05:12:13.126Z,18.48
2022-10-16T05:14:46.296Z,17.87
2022-10-16T05:17:16.966Z,17.23
2022-10-16T05:19:47.568Z,19.20
2022-10-16T05:22:18.166Z,16.73
2022-10-16T05:24:49.130Z,17.45
2022-10-16T05:27:21.633Z,17.52
2022-10-16T05:29:53.017Z,17.73
2022-10-16T05:32:24.215Z,15.80
2022-10-16T05:34:55.006Z,16.55
2022-10-16T05:37:25.914Z,17.70
2022-10-16T05:39:56.537Z,18.27
2022-10-16T05:42:27.327Z,14.43
2022-10-16T05:44:59.551Z,17.35
2022-10-16T05:47:30.380Z,15.25
2022-10-16T05:50:01.151Z,18.07
2022-10-16T05:52:32.004Z,14.58
2022-10-16T05:55:02.885Z,18.80
2022-10-16T05:57:33.655Z,14.68
2022-10-16T06:00:06.294Z,16.45
2022-10-16T06:02:37.133Z,15.68
2022-10-16T06:05:08.263Z,14.65
2022-10-16T06:07:41.610Z,16.73
2022-10-16T06:10:12.897Z,17.55
2022-10-16T06:12:43.480Z,14.98
2022-10-16T06:15:14.060Z,17.57
2022-10-16T06:17:44.667Z,20.35
2022-10-16T06:20:15.259Z,19.07
2022-10-16T06:22:47.411Z,19.37
2022-10-16T06:25:17.985Z,16.67
2022-10-16T06:27:48.562Z,21.30
2022-10-16T06:30:19.238Z,19.02
2022-10-16T06:32:49.919Z,20.27
2022-10-16T06:35:20.580Z,20.20
2022-10-16T06:37:51.300Z,16.35
2022-10-16T06:40:22.002Z,16.45
2022-10-16T06:42:53.910Z,16.30
2022-10-16T06:45:24.955Z,17.82
2022-10-16T06:47:55.516Z,14.07
2022-10-16T06:50:26.142Z,16.60
2022-10-16T06:52:56.731Z,15.45
2022-10-16T06:55:27.446Z,17.45
2022-10-16T06:57:58.281Z,16.02
2022-10-16T07:00:28.962Z,18.27
2022-10-16T07:03:01.825Z,17.52
2022-10-16T07:05:35.214Z,14.33
2022-10-16T07:08:07.344Z,14.68
2022-10-16T07:10:41.654Z,14.35
2022-10-16T07:13:13.874Z,13.50
2022-10-16T07:15:44.809Z,14.00
2022-10-16T07:18:16.883Z,13.30
2022-10-16T07:20:50.579Z,17.37
2022-10-16T07:23:21.281Z,18.73
2022-10-16T07:25:55.040Z,17.00
2022-10-16T07:28:31.460Z,16.07
2022-10-16T07:31:04.472Z,12.05
2022-10-16T07:33:36.590Z,12.73
2022-10-16T07:36:09.567Z,14.75
2022-10-16T07:38:40.368Z,17.50
2022-10-16T07:41:13.263Z,16.70
2022-10-16T07:43:48.704Z,14.90
2022-10-16T07:46:27.411Z,15.35
2022-10-16T07:48:58.453Z,19.30
2022-10-16T07:51:34.034Z,17.23
2022-10-16T07:54:04.801Z,14.98
2022-10-16T07:56:37.637Z,17.12
2022-10-16T07:59:07.966Z,15.98
2022-10-16T08:01:38.584Z,16.73
2022-10-16T08:04:09.223Z,17.17
2022-10-16T08:06:43.510Z,17.60
2022-10-16T08:09:14.235Z,14.50
2022-10-16T08:11:44.955Z,13.83
2022-10-16T08:14:15.590Z,18.02
2022-10-16T08:16:46.315Z,17.12
2022-10-16T08:19:17.848Z,14.65
2022-10-16T08:21:50.988Z,18.95
2022-10-16T08:24:22.971Z,17.37
2022-10-16T08:26:56.337Z,16.37
2022-10-16T08:29:26.963Z,16.30
2022-10-16T08:31:58.509Z,16.37
2022-10-16T08:34:29.254Z,17.60
2022-10-16T08:36:59.751Z,20.90
2022-10-16T08:39:30.545Z,25.23
2022-10-16T08:42:03.599Z,21.57
2022-10-16T08:44:38.280Z,16.93
2022-10-16T08:47:11.310Z,18.27
2022-10-16T08:49:44.434Z,15.48
2022-10-16T08:52:19.365Z,16.62
2022-10-16T08:54:52.549Z,22.80
2022-10-16T08:57:25.739Z,21.12
2022-10-16T09:00:00.980Z,22.30
2022-10-16T09:02:34.067Z,18.95
2022-10-16T09:05:08.095Z,17.98
2022-10-16T09:07:41.136Z,19.35
2022-10-16T09:10:14.685Z,18.07
2022-10-16T09:12:48.077Z,17.45
2022-10-16T09:15:20.246Z,20.25
2022-10-16T09:17:53.745Z,19.70
2022-10-16T09:20:27.436Z,18.50
2022-10-16T09:23:00.541Z,17.20
2022-10-16T09:25:32.000Z,19.62
2022-10-16T09:28:02.711Z,17.00
2022-10-16T09:30:36.617Z,17.82
2022-10-16T09:33:08.906Z,20.60
2022-10-16T09:35:42.503Z,16.82
2022-10-16T09:38:15.798Z,19.73
2022-10-16T09:40:49.516Z,21.30
2022-10-16T09:43:25.870Z,17.80
2022-10-16T09:45:58.141Z,19.17
2022-10-16T09:48:31.526Z,18.37
2022-10-16T09:51:08.316Z,17.87
2022-10-16T09:56:13.384Z,16.23
2022-10-16T09:58:46.823Z,21.07
2022-10-16T10:01:20.843Z,20.30
2022-10-16T10:03:52.842Z,15.93
2022-10-16T10:06:27.336Z,20.52
2022-10-16T10:09:00.512Z,16.77
2022-10-16T10:11:34.153Z,18.20
2022-10-16T10:14:07.281Z,16.25
2022-10-16T10:16:38.275Z,21.82
2022-10-16T10:19:10.970Z,18.50
2022-10-16T10:21:42.740Z,18.00
2022-10-16T10:24:15.586Z,20.45
2022-10-16T10:26:48.848Z,18.65
2022-10-16T10:29:21.814Z,24.37
2022-10-16T10:31:55.384Z,20.90
2022-10-16T10:34:28.509Z,17.92
2022-10-16T10:37:02.180Z,19.80
2022-10-16T10:39:35.526Z,19.95
2022-10-16T10:42:09.278Z,24.30
2022-10-16T10:44:44.459Z,19.23
2022-10-16T10:47:17.795Z,20.45
2022-10-16T10:49:49.578Z,17.67
2022-10-16T10:52:22.699Z,19.57
2022-10-16T10:54:55.750Z,23.40
2022-10-16T10:57:30.620Z,19.82
2022-10-16T11:00:02.442Z,18.73
2022-10-16T11:02:37.373Z,16.70
2022-10-16T11:05:10.528Z,21.97
2022-10-16T11:07:43.583Z,21.80
2022-10-16T11:10:16.647Z,20.08
2022-10-16T11:12:52.915Z,18.55
2022-10-16T11:15:26.164Z,21.37
2022-10-16T11:18:09.115Z,22.42
2022-10-16T11:20:42.537Z,22.60
2022-10-16T11:23:22.514Z,23.02
2022-10-16T11:25:54.437Z,22.48
2022-10-16T11:28:31.747Z,21.77
2022-10-16T11:31:05.874Z,24.82
2022-10-16T11:33:39.839Z,22.27
2022-10-16T11:36:16.681Z,19.25
2022-10-16T11:41:21.687Z,19.52
2022-10-16T11:43:54.327Z,23.35
2022-10-16T11:46:29.601Z,25.23
2022-10-16T11:49:02.041Z,20.62
2022-10-16T11:51:35.130Z,21.68
2022-10-16T11:54:09.525Z,16.00
2022-10-16T11:57:00.717Z,19.17
2022-10-16T11:59:19.711Z,18.30
2022-10-16T12:01:53.284Z,18.55
2022-10-16T12:04:31.856Z,19.15
2022-10-16T12:07:04.887Z,20.40
2022-10-16T12:09:37.828Z,20.80
2022-10-16T12:12:10.172Z,19.48
2022-10-16T12:15:03.868Z,22.73
2022-10-16T12:17:17.348Z,17.55
2022-10-16T12:22:22.571Z,21.15
2022-10-16T12:24:54.761Z,24.43
2022-10-16T12:27:28.086Z,22.75
2022-10-16T12:30:01.429Z,21.30
2022-10-16T12:32:46.123Z,21.62
2022-10-16T12:35:08.780Z,22.52
2022-10-16T12:37:41.865Z,21.05
2022-10-16T12:40:16.833Z,19.42
2022-10-16T12:42:47.590Z,18.90
2022-10-16T12:45:20.747Z,20.37
2022-10-16T12:47:54.238Z,23.40
2022-10-16T12:50:27.370Z,21.20
2022-10-16T12:52:58.108Z,22.17
2022-10-16T12:55:31.168Z,20.85
2022-10-16T12:58:04.287Z,20.80
2022-10-16T13:00:38.099Z,25.30
2022-10-16T13:03:12.646Z,23.83
2022-10-16T13:05:45.642Z,24.02
2022-10-16T13:08:21.863Z,18.20
2022-10-16T13:10:53.272Z,24.30
2022-10-16T13:13:26.384Z,23.35
2022-10-16T13:15:59.399Z,23.50
2022-10-16T13:18:34.849Z,27.77
2022-10-16T13:21:09.347Z,24.00
2022-10-16T13:23:44.994Z,25.25
2022-10-16T13:26:18.089Z,29.57
2022-10-16T13:28:49.576Z,29.00
2022-10-16T13:31:22.761Z,26.62
2022-10-16T13:33:59.304Z,23.73
2022-10-16T13:36:32.493Z,26.87
2022-10-16T13:39:08.914Z,26.62
2022-10-16T13:41:39.652Z,24.02
2022-10-16T13:44:15.594Z,22.50
2022-10-16T13:46:46.217Z,27.07
2022-10-16T13:49:22.733Z,25.60
2022-10-16T13:51:55.853Z,24.02
2022-10-16T13:54:27.919Z,24.27
2022-10-16T13:57:03.090Z,26.05
2022-10-16T13:59:33.391Z,23.05
2022-10-16T14:02:06.253Z,27.07
2022-10-16T14:04:39.093Z,26.40
2022-10-16T14:07:12.130Z,24.35
2022-10-16T14:09:42.907Z,25.37
2022-10-16T14:12:21.071Z,22.42
2022-10-16T14:14:52.959Z,22.65
2022-10-16T14:17:26.108Z,23.80
2022-10-16T14:20:02.492Z,20.12
2022-10-16T14:22:34.023Z,24.32
2022-10-16T14:25:06.848Z,22.55
2022-10-16T14:27:40.427Z,24.77
2022-10-16T14:30:13.472Z,29.55
2022-10-16T14:32:47.092Z,27.20
2022-10-16T14:35:20.098Z,24.63
2022-10-16T14:37:54.265Z,25.90
2022-10-16T14:40:27.408Z,24.90
2022-10-16T14:42:58.351Z,22.13
2022-10-16T14:45:31.418Z,23.62
2022-10-16T14:48:18.768Z,20.92
2022-10-16T14:50:47.953Z,23.62
2022-10-16T14:53:19.268Z,22.60
2022-10-16T14:55:50.667Z,27.35
2022-10-16T14:58:24.522Z,22.93
2022-10-16T15:00:57.828Z,22.20
2022-10-16T15:03:30.056Z,21.12
2022-10-16T15:06:05.688Z,20.40
2022-10-16T15:11:21.016Z,20.90
2022-10-16T15:13:51.539Z,23.97
2022-10-16T15:16:22.876Z,21.95
2022-10-16T15:18:56.910Z,22.22
2022-10-16T15:21:28.571Z,19.45
2022-10-16T15:24:06.765Z,22.98
2022-10-16T15:26:41.179Z,23.30
2022-10-16T15:29:11.953Z,23.70
2022-10-16T15:31:48.179Z,18.77
2022-10-16T15:34:23.268Z,21.17
2022-10-16T15:40:12.507Z,20.23
2022-10-16T15:42:43.839Z,18.62
2022-10-16T15:45:17.385Z,22.07
2022-10-16T15:47:49.587Z,19.65
2022-10-16T15:50:20.388Z,18.45
2022-10-16T15:52:53.929Z,19.48
2022-10-16T15:55:24.548Z,21.80
2022-10-16T15:57:55.085Z,25.50
2022-10-16T16:00:27.050Z,21.23
2022-10-16T16:02:58.082Z,21.75
2022-10-16T16:05:29.575Z,18.62
2022-10-16T16:08:00.982Z,18.02
2022-10-16T16:10:34.783Z,21.57
2022-10-16T16:13:05.363Z,19.67
2022-10-16T16:15:35.899Z,22.37
2022-10-16T16:18:07.833Z,20.62
2022-10-16T16:20:38.433Z,17.65
2022-10-16T16:23:08.963Z,21.05
2022-10-16T16:25:39.582Z,19.37
2022-10-16T16:28:13.179Z,22.00
2022-10-16T16:30:44.381Z,23.75
2022-10-16T16:33:14.892Z,20.75
2022-10-16T16:35:45.402Z,26.20
2022-10-16T16:38:16.156Z,26.52
2022-10-16T16:40:46.880Z,18.23
2022-10-16T16:43:19.835Z,23.47
2022-10-16T16:45:51.125Z,22.87
2022-10-16T16:48:22.568Z,21.00
2022-10-16T16:50:58.122Z,20.68
2022-10-16T16:53:29.968Z,23.73
2022-10-16T16:56:04.762Z,18.62
2022-10-16T16:58:36.082Z,19.60
2022-10-16T17:01:22.959Z,21.05
2022-10-16T17:03:40.020Z,21.55
2022-10-16T17:06:20.743Z,20.70
2022-10-16T17:08:52.679Z,21.50
2022-10-16T17:14:14.768Z,21.33
2022-10-16T17:16:46.985Z,20.48
2022-10-16T17:19:20.504Z,18.50
2022-10-16T17:21:53.567Z,18.48
2022-10-16T17:24:26.013Z,20.17
2022-10-16T17:26:56.531Z,19.98
2022-10-16T17:29:27.546Z,21.23
2022-10-16T17:32:00.554Z,21.27
2022-10-16T17:34:31.285Z,18.75
2022-10-16T17:37:02.188Z,17.87
2022-10-16T17:39:34.411Z,21.30
2022-10-16T17:42:07.998Z,17.30
2022-10-16T17:44:39.963Z,21.05
2022-10-16T17:47:10.474Z,19.77
2022-10-16T17:49:41.081Z,21.50
2022-10-16T17:52:11.701Z,19.30
2022-10-16T17:54:42.321Z,19.67
2022-10-16T17:57:15.831Z,20.20
2022-10-16T17:59:46.561Z,19.90
2022-10-16T18:02:18.280Z,20.43
2022-10-16T18:04:50.168Z,17.55
2022-10-16T18:07:21.188Z,19.50
2022-10-16T18:10:10.651Z,17.70
2022-10-16T18:12:26.083Z,21.00
2022-10-16T18:14:59.714Z,22.58
2022-10-16T18:17:30.906Z,20.45
2022-10-16T18:20:01.386Z,20.60
2022-10-16T18:22:37.492Z,22.20
2022-10-16T18:25:09.294Z,22.42
2022-10-16T18:27:39.807Z,23.77
2022-10-16T18:30:10.826Z,21.77
2022-10-16T18:32:41.342Z,21.85
2022-10-16T18:35:19.722Z,20.20
2022-10-16T18:37:53.993Z,20.72
2022-10-16T18:40:30.180Z,18.37
2022-10-16T18:43:04.491Z,23.47
2022-10-16T18:45:35.075Z,24.52
2022-10-16T18:48:06.101Z,22.32
2022-10-16T18:50:36.630Z,21.12
2022-10-16T18:53:07.159Z,24.65
2022-10-16T18:55:39.358Z,19.92
2022-10-16T18:58:11.519Z,23.90
2022-10-16T19:00:42.336Z,26.35
2022-10-16T19:03:12.891Z,23.38
2022-10-16T19:05:44.942Z,20.92
2022-10-16T19:08:18.604Z,24.80
2022-10-16T19:10:50.529Z,24.07
2022-10-16T19:13:21.946Z,25.62
2022-10-16T19:15:58.477Z,21.62
2022-10-16T19:18:36.360Z,21.33
2022-10-16T19:21:08.881Z,29.10
2022-10-16T19:23:43.232Z,23.12
2022-10-16T19:26:16.359Z,21.55
2022-10-16T19:28:47.700Z,25.35
2022-10-16T19:31:21.019Z,20.85
2022-10-16T19:33:54.356Z,21.33
2022-10-16T19:36:27.452Z,22.13
2022-10-16T19:39:00.855Z,20.57
2022-10-16T19:41:35.721Z,20.25
2022-10-16T19:44:08.570Z,24.20
2022-10-16T19:46:41.851Z,20.37
2022-10-16T19:49:14.999Z,22.62
2022-10-16T19:51:46.972Z,22.90
2022-10-16T19:54:18.037Z,22.67
2022-10-16T19:56:48.593Z,20.15
2022-10-16T19:59:20.059Z,26.52
2022-10-16T20:01:50.860Z,25.30
2022-10-16T20:04:21.792Z,22.27
2022-10-16T20:06:52.364Z,25.20
2022-10-16T20:09:22.989Z,25.52
2022-10-16T20:11:53.493Z,25.08
2022-10-16T20:14:23.996Z,25.40
2022-10-16T20:16:54.622Z,22.65
2022-10-16T20:19:28.204Z,23.07
2022-10-16T20:21:59.016Z,24.67
2022-10-16T20:24:29.617Z,27.17
2022-10-16T20:27:01.513Z,24.70
2022-10-16T20:29:32.136Z,24.07
2022-10-16T20:32:02.671Z,23.05
2022-10-16T20:34:33.248Z,30.75
2022-10-16T20:37:03.791Z,25.75
2022-10-16T20:39:34.521Z,23.75
2022-10-16T20:42:05.123Z,22.73
2022-10-16T20:44:37.152Z,21.33
2022-10-16T20:47:07.796Z,27.70
2022-10-16T20:49:41.302Z,27.07
2022-10-16T20:52:10.528Z,30.23
2022-10-16T20:54:41.011Z,24.15
2022-10-16T20:57:12.071Z,24.65
2022-10-16T20:59:43.022Z,26.37
2022-10-16T21:02:14.687Z,26.82
2022-10-16T21:04:45.221Z,21.75
2022-10-16T21:07:15.738Z,26.65
2022-10-16T21:09:48.737Z,27.58
2022-10-16T21:12:19.248Z,27.58
2022-10-16T21:15:09.824Z,23.25
2022-10-16T21:17:22.339Z,29.18
2022-10-16T21:19:52.851Z,24.23
2022-10-16T21:22:23.446Z,27.87
2022-10-16T21:24:54.480Z,22.95
2022-10-16T21:27:25.396Z,27.20
2022-10-16T21:29:56.424Z,26.45
2022-10-16T21:32:27.109Z,23.95
2022-10-16T21:34:57.864Z,24.43
2022-10-16T21:37:31.168Z,24.82
2022-10-16T21:40:01.800Z,23.12
2022-10-16T21:42:32.494Z,24.37
2022-10-16T21:45:03.042Z,23.92
2022-10-16T21:47:35.182Z,24.60
2022-10-16T21:50:05.775Z,26.45
2022-10-16T21:52:36.529Z,28.52
2022-10-16T21:55:07.538Z,25.57
2022-10-16T21:57:38.317Z,23.57
2022-10-16T22:00:11.042Z,24.15
2022-10-16T22:02:41.526Z,25.88
2022-10-16T22:05:12.368Z,27.80
2022-10-16T22:07:43.039Z,24.45
2022-10-16T22:10:13.664Z,24.98
2022-10-16T22:12:44.153Z,30.10
2022-10-16T22:15:14.740Z,32.03
2022-10-16T22:17:46.943Z,35.38
2022-10-16T22:20:17.532Z,40.10
2022-10-16T22:22:48.055Z,36.05
2022-10-16T22:25:18.770Z,32.73
2022-10-16T22:27:49.269Z,25.45
2022-10-16T22:30:19.991Z,29.57
2022-10-16T22:32:50.642Z,24.00
2022-10-16T22:35:21.173Z,28.10
2022-10-16T22:37:51.690Z,25.82
2022-10-16T22:40:22.253Z,26.48
2022-10-16T22:42:54.615Z,30.72
2022-10-16T22:45:25.236Z,25.27
2022-10-16T22:47:55.728Z,25.45
2022-10-16T22:50:26.801Z,27.35
2022-10-16T22:52:58.827Z,25.48
2022-10-16T22:55:32.301Z,32.88
2022-10-16T22:58:02.845Z,33.88
2022-10-16T23:00:33.959Z,42.93
2022-10-16T23:03:04.484Z,43.83
2022-10-16T23:05:36.822Z,46.85
2022-10-16T23:08:08.322Z,31.35
2022-10-16T23:10:41.423Z,33.85
2022-10-16T23:13:12.851Z,32.80
2022-10-16T23:15:45.730Z,44.13
2022-10-16T23:18:16.245Z,30.30
2022-10-16T23:20:46.761Z,27.98
2022-10-16T23:23:17.271Z,34.75
2022-10-16T23:25:49.212Z,32.03
2022-10-16T23:28:19.725Z,28.35
2022-10-16T23:30:50.254Z,33.42
2022-10-16T23:33:20.882Z,32.65
2022-10-16T23:35:51.471Z,31.97
2022-10-16T23:38:21.967Z,48.52
2022-10-16T23:40:52.573Z,50.78
2022-10-16T23:43:23.101Z,37.53
2022-10-16T23:45:56.402Z,38.75
2022-10-16T23:48:27.095Z,34.65
2022-10-16T23:51:00.759Z,28.40
2022-10-16T23:53:31.439Z,35.52
2022-10-16T23:56:01.931Z,30.75
2022-10-16T23:58:32.435Z,51.33
